createdAt,value
2023-04-15T00:06:22.008Z,7.59
2023-04-15T00:22:04.065Z,7.55
2023-04-15T00:37:46.648Z,7.51
2023-04-15T00:53:29.608Z,7.52
2023-04-15T01:09:11.745Z,7.56
2023-04-15T01:24:54.701Z,7.52
2023-04-15T01:40:37.569Z,7.53
2023-04-15T01:56:20.304Z,7.53
2023-04-15T02:12:03.356Z,7.48
2023-04-15T02:27:46.201Z,7.44
2023-04-15T02:43:29.221Z,7.47
2023-04-15T02:59:12.197Z,7.55
2023-04-15T03:14:55.198Z,7.6
2023-04-15T03:30:37.636Z,7.68
2023-04-15T03:46:20.099Z,7.75
2023-04-15T04:02:02.496Z,7.79
2023-04-15T04:17:45.547Z,7.84
2023-04-15T04:33:27.908Z,7.86
2023-04-15T04:49:10.797Z,7.96
2023-04-15T05:04:53.299Z,8.1
2023-04-15T05:20:36.277Z,8.22
2023-04-15T05:36:18.749Z,8.45
2023-04-15T06:23:27.189Z,9.16
2023-04-15T06:54:51.797Z,10.01
2023-04-15T07:10:34.571Z,10.32
2023-04-15T07:26:24.403Z,10.31
2023-04-15T07:42:07.312Z,9.97
2023-04-15T07:57:42.586Z,9.77
2023-04-15T07:58:29.904Z,9.92
2023-04-15T08:14:12.874Z,9.74
2023-04-15T08:29:55.780Z,9.84
2023-04-15T08:45:38.292Z,9.79
2023-04-15T09:01:20.844Z,9.99
2023-04-15T09:17:03.293Z,10.27
2023-04-15T09:32:46.205Z,10.3
2023-04-15T09:48:29.057Z,10.1
2023-04-15T10:04:11.696Z,9.97
2023-04-15T10:19:54.445Z,10.02
2023-04-15T10:35:36.848Z,10.07
2023-04-15T10:51:19.221Z,10.1
2023-04-15T11:07:02.076Z,10.07
2023-04-15T11:22:44.342Z,10.13
2023-04-15T11:38:26.761Z,10.18
2023-04-15T11:54:09.768Z,10.31
2023-04-15T12:09:52.821Z,10.28
2023-04-15T12:25:35.179Z,10.48
2023-04-15T12:41:17.635Z,10.63
2023-04-15T12:57:00.354Z,10.92
2023-04-15T13:12:42.533Z,10.93
2023-04-15T13:28:24.938Z,10.9
2023-04-15T13:44:07.830Z,10.93
2023-04-15T13:59:50.859Z,10.95
2023-04-15T14:15:33.524Z,10.87
2023-04-15T14:31:16.309Z,10.82
2023-04-15T14:46:59.312Z,11.04
2023-04-15T15:02:42.185Z,11.18
2023-04-15T15:18:25.001Z,11.12
2023-04-15T15:34:08.036Z,10.94
2023-04-15T15:49:50.524Z,10.87
2023-04-15T16:05:32.778Z,10.79
2023-04-15T16:21:14.924Z,10.66
2023-04-15T16:36:57.370Z,10.6
2023-04-15T16:52:39.659Z,10.51
2023-04-15T17:08:22.408Z,10.44
2023-04-15T17:24:04.638Z,10.44
2023-04-15T17:39:46.994Z,10.31
2023-04-15T17:55:29.535Z,10.14
2023-04-15T18:11:11.835Z,9.97
2023-04-15T18:26:54.234Z,9.81
2023-04-15T18:42:36.813Z,9.72
2023-04-15T18:58:19.751Z,9.64
2023-04-15T19:14:02.170Z,9.63
2023-04-15T19:29:45.001Z,9.58
2023-04-15T19:45:27.737Z,9.55
2023-04-15T20:01:09.968Z,9.55
2023-04-15T20:16:52.706Z,9.55
2023-04-15T20:32:34.971Z,9.55
2023-04-15T20:48:17.183Z,9.47
2023-04-15T21:03:59.449Z,9.41
2023-04-15T21:19:41.712Z,9.35
2023-04-15T21:35:24.461Z,9.31
2023-04-15T21:51:06.676Z,9.25
2023-04-15T22:06:49.363Z,9.25
2023-04-15T22:22:31.744Z,9.24
2023-04-15T22:38:14.674Z,9.22
2023-04-15T22:53:56.998Z,9.22
2023-04-15T23:09:39.500Z,9.21
2023-04-15T23:25:22.375Z,9.2
2023-04-15T23:41:04.576Z,9.17
2023-04-15T23:56:47.489Z,9.17
